Time;durP1;ratioP1;P1;durP2;ratioP2;P2;SDS_P1;SDS_P2;PMS_P1;PMS_P2;Temp;Humidity;BMP_temperature;BMP_pressure;BME280_temperature;BME280_humidity;BME280_pressure;Samples;Min_cycle;Max_cycle;Signal;HPM_P1;HPM_P2
2022/12/05 00:00:55;;;;;;;46.63;24.88;;;;;;;;;;5020068;28;20332;-63
2022/12/05 00:03:20;;;;;;;44.25;22.95;;;;;;;;;;5016417;28;20505;-65
2022/12/05 00:05:46;;;;;;;41.65;23.10;;;;;;;;;;5019238;28;20032;-62
2022/12/05 00:08:11;;;;;;;41.25;22.52;;;;;;;;;;4991110;28;20760;-64
2022/12/05 00:10:37;;;;;;;41.10;22.50;;;;;;;;;;5018739;28;20047;-64
2022/12/05 00:13:02;;;;;;;40.75;22.67;;;;;;;;;;5018282;28;20580;-63
2022/12/05 00:15:28;;;;;;;40.75;23.00;;;;;;;;;;4995712;28;20493;-64
2022/12/05 00:17:55;;;;;;;42.05;23.40;;;;;;;;;;5018688;28;20071;-64
2022/12/05 00:20:21;;;;;;;43.25;22.58;;;;;;;;;;5017760;28;20297;-64
2022/12/05 00:22:46;;;;;;;42.88;21.65;;;;;;;;;;5017536;28;20628;-63
2022/12/05 00:25:14;;;;;;;39.58;20.63;;;;;;;;;;5016887;28;20053;-65
2022/12/05 00:27:39;;;;;;;40.92;21.15;;;;;;;;;;5018484;28;20052;-64
2022/12/05 00:30:05;;;;;;;38.75;21.30;;;;;;;;;;5020109;28;20277;-64
2022/12/05 00:32:31;;;;;;;37.70;20.58;;;;;;;;;;5018326;28;20036;-64
2022/12/05 00:34:56;;;;;;;36.10;20.52;;;;;;;;;;5017100;28;20033;-64
2022/12/05 00:37:22;;;;;;;37.50;21.30;;;;;;;;;;4999647;28;20787;-63
2022/12/05 00:39:48;;;;;;;34.47;19.92;;;;;;;;;;5018761;28;20121;-62
2022/12/05 00:42:13;;;;;;;35.25;19.48;;;;;;;;;;5017421;28;20146;-65
2022/12/05 00:44:39;;;;;;;34.83;20.25;;;;;;;;;;5016531;28;20577;-62
2022/12/05 00:47:04;;;;;;;32.17;19.23;;;;;;;;;;5000451;28;20053;-62
2022/12/05 00:49:30;;;;;;;34.33;19.67;;;;;;;;;;5017568;28;20068;-65
2022/12/05 00:51:57;;;;;;;34.67;18.65;;;;;;;;;;5016879;28;20157;-65
2022/12/05 00:54:22;;;;;;;29.38;17.55;;;;;;;;;;4998219;28;20108;-65
2022/12/05 00:56:50;;;;;;;30.65;18.95;;;;;;;;;;5017794;28;20043;-65
2022/12/05 00:59:16;;;;;;;32.45;18.85;;;;;;;;;;5018242;28;20067;-64
2022/12/05 01:01:42;;;;;;;31.27;18.83;;;;;;;;;;5017107;28;20072;-63
2022/12/05 01:04:11;;;;;;;31.33;18.38;;;;;;;;;;5016430;28;20095;-63
2022/12/05 01:06:37;;;;;;;31.75;18.35;;;;;;;;;;5017642;28;21798;-64
2022/12/05 01:09:02;;;;;;;31.00;17.58;;;;;;;;;;5016090;28;20032;-64
2022/12/05 01:11:28;;;;;;;31.52;18.70;;;;;;;;;;5010065;28;20060;-63
2022/12/05 01:13:54;;;;;;;30.67;19.00;;;;;;;;;;5016636;28;20496;-63
2022/12/05 01:16:22;;;;;;;32.22;17.35;;;;;;;;;;5016636;28;20431;-63
2022/12/05 01:18:47;;;;;;;34.45;18.30;;;;;;;;;;5017729;28;20036;-62
2022/12/05 01:21:13;;;;;;;31.95;17.92;;;;;;;;;;4996725;28;20179;-64
2022/12/05 01:23:38;;;;;;;31.77;18.00;;;;;;;;;;5015225;28;20046;-62
2022/12/05 01:26:06;;;;;;;32.92;17.90;;;;;;;;;;4998620;28;20047;-63
2022/12/05 01:28:32;;;;;;;32.22;19.30;;;;;;;;;;5015655;28;21797;-63
2022/12/05 01:30:58;;;;;;;32.00;18.33;;;;;;;;;;5016266;28;20152;-62
2022/12/05 01:33:25;;;;;;;33.13;18.50;;;;;;;;;;5017849;28;20710;-62
2022/12/05 01:35:51;;;;;;;30.75;17.92;;;;;;;;;;5001742;28;20596;-64
2022/12/05 01:38:16;;;;;;;30.83;17.67;;;;;;;;;;5017883;28;20098;-63
2022/12/05 01:40:41;;;;;;;34.67;19.45;;;;;;;;;;5017400;28;20301;-64
2022/12/05 01:43:17;;;;;;;30.17;17.83;;;;;;;;;;5016077;28;20043;-63
2022/12/05 01:45:43;;;;;;;31.63;18.00;;;;;;;;;;5016166;28;20043;-64
2022/12/05 01:48:29;;;;;;;31.52;17.30;;;;;;;;;;5000756;28;21160;-63
2022/12/05 01:50:54;;;;;;;32.72;18.63;;;;;;;;;;5015114;28;20298;-62
2022/12/05 01:53:23;;;;;;;28.15;17.42;;;;;;;;;;5017186;28;20113;-62
2022/12/05 01:55:49;;;;;;;32.50;19.35;;;;;;;;;;5017475;28;20855;-63
2022/12/05 01:58:15;;;;;;;30.38;17.45;;;;;;;;;;5018414;28;20870;-63
2022/12/05 02:00:42;;;;;;;30.98;18.38;;;;;;;;;;4999713;28;20029;-63
2022/12/05 02:03:13;;;;;;;31.33;18.65;;;;;;;;;;5007234;28;20054;-62
2022/12/05 02:05:39;;;;;;;33.65;18.92;;;;;;;;;;5015939;28;20044;-62
2022/12/05 02:08:06;;;;;;;34.58;17.92;;;;;;;;;;5018160;28;20503;-62
2022/12/05 02:10:37;;;;;;;33.95;18.63;;;;;;;;;;5018227;28;20041;-61
2022/12/05 02:13:29;;;;;;;31.35;18.92;;;;;;;;;;4995448;28;20198;-62
2022/12/05 02:15:59;;;;;;;30.63;17.87;;;;;;;;;;4986084;28;20037;-62
2022/12/05 02:18:31;;;;;;;32.78;18.23;;;;;;;;;;5016504;28;20291;-61
2022/12/05 02:21:16;;;;;;;30.77;17.73;;;;;;;;;;4997615;28;20047;-61
2022/12/05 02:23:45;;;;;;;29.13;17.15;;;;;;;;;;4979172;28;20318;-62
2022/12/05 02:26:37;;;;;;;29.05;18.27;;;;;;;;;;4994768;28;20259;-64
2022/12/05 02:29:02;;;;;;;33.33;17.50;;;;;;;;;;5015535;28;20309;-61
2022/12/05 02:31:36;;;;;;;30.25;18.10;;;;;;;;;;5016121;28;20379;-63
2022/12/05 02:34:08;;;;;;;32.58;19.50;;;;;;;;;;5017446;28;20533;-61
2022/12/05 02:36:53;;;;;;;31.23;18.50;;;;;;;;;;5017525;28;20185;-61
2022/12/05 02:39:25;;;;;;;29.10;17.65;;;;;;;;;;5015314;28;20059;-61
2022/12/05 02:41:57;;;;;;;30.95;17.67;;;;;;;;;;5016013;28;20037;-62
2022/12/05 02:44:32;;;;;;;31.92;18.45;;;;;;;;;;5019466;28;20036;-61
2022/12/05 02:46:57;;;;;;;29.50;17.88;;;;;;;;;;5021709;28;20627;-62
2022/12/05 02:49:25;;;;;;;31.15;17.45;;;;;;;;;;5020649;28;20782;-64
2022/12/05 02:51:55;;;;;;;34.22;18.52;;;;;;;;;;5016679;28;20697;-64
2022/12/05 02:54:23;;;;;;;34.72;19.25;;;;;;;;;;5020059;28;20033;-64
2022/12/05 02:56:49;;;;;;;32.22;18.92;;;;;;;;;;5004433;28;20029;-65
2022/12/05 02:59:15;;;;;;;36.25;18.80;;;;;;;;;;5020102;28;20056;-61
2022/12/05 03:01:43;;;;;;;31.35;19.00;;;;;;;;;;5020703;28;20117;-61
2022/12/05 03:04:10;;;;;;;32.63;18.90;;;;;;;;;;5018801;28;20218;-63
2022/12/05 03:06:38;;;;;;;33.00;19.13;;;;;;;;;;5019598;28;22741;-62
2022/12/05 03:09:17;;;;;;;34.92;19.85;;;;;;;;;;5019979;28;20109;-62
2022/12/05 03:11:48;;;;;;;29.83;18.27;;;;;;;;;;5003003;28;20161;-61
2022/12/05 03:14:20;;;;;;;32.60;18.83;;;;;;;;;;5019310;28;20619;-62
2022/12/05 03:16:52;;;;;;;32.33;18.95;;;;;;;;;;5021073;28;20193;-62
2022/12/05 03:19:24;;;;;;;30.70;17.80;;;;;;;;;;5018940;28;20079;-62
2022/12/05 03:22:00;;;;;;;29.65;17.88;;;;;;;;;;5018992;28;20041;-62
2022/12/05 03:24:26;;;;;;;33.42;18.90;;;;;;;;;;5019834;28;20237;-63
2022/12/05 03:27:00;;;;;;;32.45;18.65;;;;;;;;;;5021562;28;20718;-62
2022/12/05 03:29:25;;;;;;;32.03;18.65;;;;;;;;;;5020508;28;20033;-62
2022/12/05 03:31:51;;;;;;;30.50;17.35;;;;;;;;;;5018368;28;20075;-62
2022/12/05 03:34:27;;;;;;;30.17;17.48;;;;;;;;;;5020110;28;20141;-62
2022/12/05 03:36:53;;;;;;;31.38;18.15;;;;;;;;;;5019774;28;20028;-61
2022/12/05 03:39:27;;;;;;;26.60;17.33;;;;;;;;;;5021166;28;20086;-62
2022/12/05 03:41:56;;;;;;;27.75;17.33;;;;;;;;;;5018584;28;20055;-63
2022/12/05 03:44:36;;;;;;;28.13;16.80;;;;;;;;;;5019139;28;20043;-64
2022/12/05 03:47:24;;;;;;;33.47;17.58;;;;;;;;;;4986988;28;20151;-62
2022/12/05 03:49:55;;;;;;;29.75;17.95;;;;;;;;;;5008757;28;20569;-64
2022/12/05 03:52:26;;;;;;;33.72;18.95;;;;;;;;;;5018391;28;20032;-61
2022/12/05 03:54:54;;;;;;;33.22;18.50;;;;;;;;;;5020143;28;20119;-62
2022/12/05 03:57:42;;;;;;;31.73;19.15;;;;;;;;;;5020102;28;20068;-64
2022/12/05 04:00:14;;;;;;;35.92;19.67;;;;;;;;;;4992443;28;20033;-61
2022/12/05 04:03:04;;;;;;;34.17;19.60;;;;;;;;;;5016976;28;21135;-61
2022/12/05 04:05:34;;;;;;;34.65;19.83;;;;;;;;;;5018972;28;20786;-61
2022/12/05 04:08:04;;;;;;;35.78;20.40;;;;;;;;;;5018693;28;20556;-62
2022/12/05 04:10:31;;;;;;;37.53;21.20;;;;;;;;;;5019772;28;20128;-62
2022/12/05 04:13:16;;;;;;;42.90;22.23;;;;;;;;;;5018952;28;20501;-62
2022/12/05 04:18:27;;;;;;;45.08;23.10;;;;;;;;;;5000702;28;20209;-61
2022/12/05 04:23:38;;;;;;;45.55;22.83;;;;;;;;;;5019847;28;20509;-61
2022/12/05 04:26:19;;;;;;;49.47;24.25;;;;;;;;;;5019394;28;20153;-62
2022/12/05 04:28:53;;;;;;;51.10;24.67;;;;;;;;;;5001956;28;20579;-61
2022/12/05 04:31:21;;;;;;;45.15;24.33;;;;;;;;;;5018543;28;20554;-63
2022/12/05 04:33:51;;;;;;;45.60;24.75;;;;;;;;;;5019354;28;20038;-61
2022/12/05 04:36:19;;;;;;;52.78;25.48;;;;;;;;;;4999854;28;20221;-62
2022/12/05 04:38:49;;;;;;;51.70;26.48;;;;;;;;;;5018271;28;20074;-61
2022/12/05 04:41:18;;;;;;;52.50;25.67;;;;;;;;;;4995997;28;20028;-61
2022/12/05 04:43:44;;;;;;;42.35;23.85;;;;;;;;;;5001093;28;20053;-62
2022/12/05 04:46:12;;;;;;;45.90;24.35;;;;;;;;;;5019368;28;20179;-62
2022/12/05 04:48:38;;;;;;;45.63;25.20;;;;;;;;;;5017067;28;22649;-62
2022/12/05 04:51:06;;;;;;;44.83;24.75;;;;;;;;;;5018727;28;20805;-63
2022/12/05 04:53:31;;;;;;;48.72;25.67;;;;;;;;;;5016706;28;20029;-62
2022/12/05 04:55:58;;;;;;;46.38;24.77;;;;;;;;;;5017795;28;20043;-63
2022/12/05 04:58:24;;;;;;;43.25;23.60;;;;;;;;;;4999919;28;22322;-63
2022/12/05 05:01:09;;;;;;;42.88;24.40;;;;;;;;;;5000750;28;21031;-62
2022/12/05 05:03:41;;;;;;;46.53;24.23;;;;;;;;;;5017602;28;20117;-62
2022/12/05 05:06:06;;;;;;;;;;;;;;;;;;5016132;28;20075;-63
2022/12/05 05:08:32;;;;;;;48.38;22.52;;;;;;;;;;5018458;28;20288;-63
2022/12/05 05:11:08;;;;;;;38.83;23.50;;;;;;;;;;5006121;28;20139;-61
2022/12/05 05:13:34;;;;;;;44.05;24.20;;;;;;;;;;5017321;28;20068;-61
2022/12/05 05:15:59;;;;;;;40.83;23.50;;;;;;;;;;5016595;28;20033;-62
2022/12/05 05:18:24;;;;;;;40.40;23.70;;;;;;;;;;5016634;28;20029;-62
2022/12/05 05:20:49;;;;;;;43.33;23.05;;;;;;;;;;5018324;28;20804;-62
2022/12/05 05:23:17;;;;;;;40.58;22.60;;;;;;;;;;5017628;28;20047;-62
2022/12/05 05:25:43;;;;;;;36.70;22.20;;;;;;;;;;4999799;28;20058;-62
2022/12/05 05:28:11;;;;;;;41.60;23.15;;;;;;;;;;5015969;28;20453;-61
2022/12/05 05:30:36;;;;;;;37.75;23.17;;;;;;;;;;5017196;28;20063;-60
2022/12/05 05:33:01;;;;;;;38.13;21.95;;;;;;;;;;5017402;28;20511;-63
2022/12/05 05:35:27;;;;;;;38.22;22.05;;;;;;;;;;5001241;28;20064;-63
2022/12/05 05:37:52;;;;;;;39.50;21.52;;;;;;;;;;5017013;28;20032;-63
2022/12/05 05:40:17;;;;;;;38.83;22.27;;;;;;;;;;5000353;28;20726;-62
2022/12/05 05:42:46;;;;;;;37.60;22.13;;;;;;;;;;5016586;28;20090;-62
2022/12/05 05:45:12;;;;;;;36.47;20.85;;;;;;;;;;5016090;28;20074;-62
2022/12/05 05:47:38;;;;;;;34.90;20.35;;;;;;;;;;5016755;28;20748;-62
2022/12/05 05:50:04;;;;;;;34.53;20.17;;;;;;;;;;5017087;28;20670;-62
2022/12/05 05:52:31;;;;;;;36.28;20.83;;;;;;;;;;4999324;28;20066;-62
2022/12/05 05:54:56;;;;;;;39.42;20.48;;;;;;;;;;5016254;28;20047;-61
2022/12/05 05:57:22;;;;;;;38.42;21.05;;;;;;;;;;4996098;28;20159;-61
2022/12/05 05:59:47;;;;;;;33.97;19.63;;;;;;;;;;5015855;28;20542;-62
2022/12/05 06:02:12;;;;;;;29.98;18.77;;;;;;;;;;5016308;28;21832;-62
2022/12/05 06:04:38;;;;;;;32.58;19.98;;;;;;;;;;5016492;28;20041;-62
2022/12/05 06:07:08;;;;;;;35.00;19.50;;;;;;;;;;5000569;28;20052;-63
2022/12/05 06:09:34;;;;;;;31.67;18.65;;;;;;;;;;5014681;28;20233;-62
2022/12/05 06:11:59;;;;;;;28.63;18.13;;;;;;;;;;5016887;28;20113;-62
2022/12/05 06:14:24;;;;;;;28.25;17.85;;;;;;;;;;4996863;28;20344;-61
2022/12/05 06:16:50;;;;;;;31.17;17.73;;;;;;;;;;5016907;28;20169;-62
2022/12/05 06:19:15;;;;;;;30.73;17.80;;;;;;;;;;4990866;28;20135;-63
2022/12/05 06:21:43;;;;;;;26.70;16.90;;;;;;;;;;5021088;28;20110;-62
2022/12/05 06:24:08;;;;;;;26.25;16.67;;;;;;;;;;4999551;28;20377;-62
2022/12/05 06:26:34;;;;;;;27.85;16.10;;;;;;;;;;5018861;28;20055;-63
2022/12/05 06:28:59;;;;;;;22.50;15.02;;;;;;;;;;5019250;28;20061;-61
2022/12/05 06:31:30;;;;;;;24.02;15.35;;;;;;;;;;4997328;28;20063;-62
2022/12/05 06:33:58;;;;;;;24.55;15.18;;;;;;;;;;4993741;28;20048;-62
2022/12/05 06:36:26;;;;;;;24.80;16.15;;;;;;;;;;5018497;28;20345;-61
2022/12/05 06:38:51;;;;;;;24.60;15.30;;;;;;;;;;5001887;28;20037;-62
2022/12/05 06:41:19;;;;;;;22.80;14.55;;;;;;;;;;5004295;28;20040;-61
2022/12/05 06:43:45;;;;;;;21.75;14.02;;;;;;;;;;5020082;28;20048;-61
2022/12/05 06:46:12;;;;;;;22.05;13.93;;;;;;;;;;5006942;28;20120;-61
2022/12/05 06:48:37;;;;;;;24.80;13.75;;;;;;;;;;5018611;28;20387;-61
2022/12/05 06:51:02;;;;;;;22.50;13.25;;;;;;;;;;5000161;28;20044;-62
2022/12/05 06:53:28;;;;;;;22.63;13.40;;;;;;;;;;5001969;28;20786;-62
2022/12/05 06:55:54;;;;;;;20.13;12.50;;;;;;;;;;5001376;28;20066;-61
2022/12/05 06:58:20;;;;;;;20.73;12.77;;;;;;;;;;5019213;28;20127;-62
2022/12/05 07:03:29;;;;;;;17.35;11.85;;;;;;;;;;5020196;28;20055;-61
2022/12/05 07:05:57;;;;;;;18.80;12.15;;;;;;;;;;5007275;28;20068;-62
2022/12/05 07:08:22;;;;;;;20.65;12.20;;;;;;;;;;5016684;28;20040;-62
2022/12/05 07:10:51;;;;;;;22.05;13.27;;;;;;;;;;5019659;28;20376;-62
2022/12/05 07:13:17;;;;;;;18.08;12.80;;;;;;;;;;5016260;28;20028;-62
2022/12/05 07:15:44;;;;;;;20.63;12.07;;;;;;;;;;5018326;28;20223;-61
2022/12/05 07:18:09;;;;;;;16.88;10.85;;;;;;;;;;5019014;28;20545;-62
2022/12/05 07:20:35;;;;;;;17.20;11.07;;;;;;;;;;5001748;28;20447;-62
2022/12/05 07:23:00;;;;;;;18.20;10.63;;;;;;;;;;5019298;28;20037;-62
2022/12/05 07:25:26;;;;;;;18.02;10.57;;;;;;;;;;5016548;28;20667;-62
2022/12/05 07:27:52;;;;;;;18.23;11.45;;;;;;;;;;5014836;28;20357;-62
2022/12/05 07:30:17;;;;;;;15.82;10.15;;;;;;;;;;4998436;28;20033;-62
2022/12/05 07:32:42;;;;;;;15.38;10.18;;;;;;;;;;5019143;28;20041;-62
2022/12/05 07:35:10;;;;;;;16.20;10.00;;;;;;;;;;5018175;28;20051;-62
2022/12/05 07:37:35;;;;;;;15.00;9.82;;;;;;;;;;5016130;28;20045;-62
2022/12/05 07:40:01;;;;;;;15.55;10.18;;;;;;;;;;4993622;28;20056;-62
2022/12/05 07:42:29;;;;;;;15.65;10.25;;;;;;;;;;5001973;28;20041;-62
2022/12/05 07:44:55;;;;;;;16.70;9.95;;;;;;;;;;4998610;28;20036;-62
2022/12/05 07:47:20;;;;;;;15.85;10.52;;;;;;;;;;5015809;28;20052;-62
2022/12/05 07:49:48;;;;;;;18.23;10.73;;;;;;;;;;5002872;28;20494;-63
2022/12/05 07:52:14;;;;;;;15.60;10.10;;;;;;;;;;5019011;28;20439;-62
2022/12/05 07:54:39;;;;;;;17.42;10.55;;;;;;;;;;4988867;28;21064;-62
2022/12/05 07:57:04;;;;;;;16.67;10.88;;;;;;;;;;4983918;28;20044;-63
2022/12/05 07:59:30;;;;;;;17.95;11.38;;;;;;;;;;5020791;28;20040;-63
2022/12/05 08:01:55;;;;;;;17.08;11.10;;;;;;;;;;5017095;28;20049;-62
2022/12/05 08:04:21;;;;;;;20.73;10.65;;;;;;;;;;5018393;28;20469;-61
2022/12/05 08:06:46;;;;;;;16.25;10.18;;;;;;;;;;5001636;28;20052;-60
2022/12/05 08:09:11;;;;;;;15.75;10.90;;;;;;;;;;5019672;28;20067;-62
2022/12/05 08:11:37;;;;;;;16.00;10.75;;;;;;;;;;5018384;28;20354;-61
2022/12/05 08:14:03;;;;;;;16.98;11.43;;;;;;;;;;5020665;28;20025;-61
2022/12/05 08:16:30;;;;;;;18.05;11.43;;;;;;;;;;5019693;28;20503;-61
2022/12/05 08:18:56;;;;;;;19.08;10.77;;;;;;;;;;4986635;28;20628;-61
2022/12/05 08:21:21;;;;;;;16.92;11.35;;;;;;;;;;5019041;28;20291;-61
2022/12/05 08:23:46;;;;;;;16.60;11.23;;;;;;;;;;5018945;28;20855;-63
2022/12/05 08:26:14;;;;;;;18.00;11.65;;;;;;;;;;5017975;28;20032;-61
2022/12/05 08:28:39;;;;;;;16.90;11.07;;;;;;;;;;5018296;28;20036;-61
2022/12/05 08:31:11;;;;;;;18.23;11.60;;;;;;;;;;5019532;28;20094;-61
2022/12/05 08:33:37;;;;;;;17.83;11.13;;;;;;;;;;5020236;28;20769;-61
2022/12/05 08:36:03;;;;;;;15.68;10.18;;;;;;;;;;5017684;28;20056;-62
2022/12/05 08:38:29;;;;;;;14.68;9.85;;;;;;;;;;5018304;28;20029;-61
2022/12/05 08:40:54;;;;;;;16.83;10.30;;;;;;;;;;5013332;28;20363;-61
2022/12/05 08:43:20;;;;;;;17.08;9.63;;;;;;;;;;5019292;28;20516;-60
2022/12/05 08:45:49;;;;;;;15.73;10.35;;;;;;;;;;5001554;28;20112;-61
2022/12/05 08:48:14;;;;;;;16.58;10.52;;;;;;;;;;5018091;28;20117;-61
2022/12/05 08:50:40;;;;;;;16.50;10.20;;;;;;;;;;5019042;28;20903;-61
2022/12/05 08:53:05;;;;;;;16.30;10.38;;;;;;;;;;4982487;28;20021;-61
2022/12/05 08:55:32;;;;;;;15.77;9.75;;;;;;;;;;5018597;28;20752;-61
2022/12/05 08:57:58;;;;;;;15.40;10.07;;;;;;;;;;5016860;28;20081;-62
2022/12/05 09:00:23;;;;;;;20.25;10.90;;;;;;;;;;5006889;28;20565;-62
2022/12/05 09:02:49;;;;;;;15.48;9.88;;;;;;;;;;5015048;28;20047;-63
2022/12/05 09:05:14;;;;;;;18.27;10.25;;;;;;;;;;5016754;28;20127;-63
2022/12/05 09:07:40;;;;;;;15.90;9.40;;;;;;;;;;4996223;28;20110;-62
2022/12/05 09:10:08;;;;;;;15.52;9.90;;;;;;;;;;5000476;28;20572;-63
2022/12/05 09:12:34;;;;;;;14.95;9.93;;;;;;;;;;5005214;28;20163;-61
2022/12/05 09:15:03;;;;;;;16.38;9.80;;;;;;;;;;5016162;28;20176;-63
2022/12/05 09:17:28;;;;;;;15.15;10.38;;;;;;;;;;5017818;28;20379;-63
2022/12/05 09:19:54;;;;;;;16.35;10.23;;;;;;;;;;5008327;28;20516;-63
2022/12/05 09:22:21;;;;;;;16.80;10.70;;;;;;;;;;5014225;28;20285;-63
2022/12/05 09:24:46;;;;;;;17.05;10.02;;;;;;;;;;5016315;28;20333;-62
2022/12/05 09:27:12;;;;;;;16.05;10.13;;;;;;;;;;5015831;28;20344;-61
2022/12/05 09:29:39;;;;;;;13.40;9.77;;;;;;;;;;5015410;28;20032;-62
2022/12/05 09:32:05;;;;;;;19.05;10.35;;;;;;;;;;5019090;28;20149;-64
2022/12/05 09:34:30;;;;;;;15.93;9.98;;;;;;;;;;4996410;28;20029;-62
2022/12/05 09:36:56;;;;;;;16.60;10.00;;;;;;;;;;5016677;28;20087;-61
2022/12/05 09:39:22;;;;;;;16.90;10.77;;;;;;;;;;5016453;28;20040;-63
2022/12/05 09:42:03;;;;;;;18.65;10.32;;;;;;;;;;5001812;28;20035;-62
2022/12/05 09:44:38;;;;;;;15.32;10.05;;;;;;;;;;5015570;28;20410;-62
2022/12/05 09:47:08;;;;;;;16.50;10.25;;;;;;;;;;5017369;28;20102;-61
2022/12/05 09:49:41;;;;;;;15.95;10.45;;;;;;;;;;5017431;28;20084;-61
2022/12/05 09:52:12;;;;;;;14.18;9.82;;;;;;;;;;5017314;28;20033;-60
2022/12/05 09:54:37;;;;;;;16.05;9.93;;;;;;;;;;5015763;28;20572;-61
2022/12/05 09:57:03;;;;;;;15.40;9.88;;;;;;;;;;4999128;28;20120;-61
2022/12/05 09:59:29;;;;;;;15.30;9.98;;;;;;;;;;5015243;28;20735;-63
2022/12/05 10:01:57;;;;;;;14.77;9.93;;;;;;;;;;5012395;28;20122;-63
2022/12/05 10:04:46;;;;;;;20.85;10.35;;;;;;;;;;5007583;28;20040;-62
2022/12/05 10:07:24;;;;;;;15.65;10.05;;;;;;;;;;5015961;28;20044;-64
2022/12/05 10:10:01;;;;;;;15.48;9.85;;;;;;;;;;5017309;28;20041;-61
2022/12/05 10:12:38;;;;;;;13.18;9.43;;;;;;;;;;5014970;28;20866;-61
2022/12/05 10:15:19;;;;;;;15.73;9.38;;;;;;;;;;5017081;28;20669;-61
2022/12/05 10:17:49;;;;;;;16.90;9.32;;;;;;;;;;5016452;28;20070;-62
2022/12/05 10:20:17;;;;;;;13.65;9.07;;;;;;;;;;4998895;28;20048;-61
2022/12/05 10:23:15;;;;;;;15.48;9.10;;;;;;;;;;4974137;28;20391;-61
2022/12/05 10:25:43;;;;;;;14.63;8.73;;;;;;;;;;4955813;28;20122;-61
2022/12/05 10:28:19;;;;;;;17.77;9.77;;;;;;;;;;5016373;28;20406;-62
2022/12/05 10:30:44;;;;;;;16.98;8.95;;;;;;;;;;4997416;28;20545;-62
2022/12/05 10:33:13;;;;;;;16.15;9.05;;;;;;;;;;5015728;28;20091;-62
2022/12/05 10:35:43;;;;;;;14.85;9.35;;;;;;;;;;5014766;28;20303;-62
2022/12/05 10:38:14;;;;;;;15.85;8.80;;;;;;;;;;4996812;28;20524;-62
2022/12/05 10:40:40;;;;;;;17.15;8.95;;;;;;;;;;5015398;28;20627;-63
2022/12/05 10:43:10;;;;;;;16.52;8.85;;;;;;;;;;5015046;28;20047;-62
2022/12/05 10:45:43;;;;;;;15.50;8.55;;;;;;;;;;5013628;28;20028;-62
2022/12/05 10:48:10;;;;;;;18.33;9.07;;;;;;;;;;4994960;28;20163;-61
2022/12/05 10:50:37;;;;;;;15.50;8.35;;;;;;;;;;5016163;28;20048;-61
2022/12/05 10:53:03;;;;;;;16.60;8.95;;;;;;;;;;5015253;28;20364;-63
2022/12/05 10:55:33;;;;;;;15.07;8.20;;;;;;;;;;5015727;28;20044;-63
2022/12/05 10:58:21;;;;;;;15.13;8.68;;;;;;;;;;5015565;28;20460;-62
2022/12/05 11:00:47;;;;;;;11.98;8.07;;;;;;;;;;5014103;28;20064;-62
2022/12/05 11:03:21;;;;;;;15.57;8.85;;;;;;;;;;5012711;28;20423;-62
2022/12/05 11:05:51;;;;;;;13.90;8.75;;;;;;;;;;4999488;28;20182;-62
2022/12/05 11:08:27;;;;;;;16.45;8.73;;;;;;;;;;4998928;28;20056;-61
2022/12/05 11:11:03;;;;;;;15.65;8.07;;;;;;;;;;5017251;28;20094;-62
2022/12/05 11:13:30;;;;;;;17.08;8.13;;;;;;;;;;5014416;28;20852;-61
2022/12/05 11:15:55;;;;;;;15.18;8.77;;;;;;;;;;5016371;28;20036;-61
2022/12/05 11:18:23;;;;;;;17.48;8.80;;;;;;;;;;5018817;28;21187;-60
2022/12/05 11:20:48;;;;;;;19.35;8.60;;;;;;;;;;5018488;28;20045;-61
2022/12/05 11:23:22;;;;;;;15.52;8.27;;;;;;;;;;5002636;28;20378;-61
2022/12/05 11:25:49;;;;;;;18.90;9.30;;;;;;;;;;5017045;28;20158;-61
2022/12/05 11:28:15;;;;;;;18.73;8.65;;;;;;;;;;5020133;28;20052;-60
2022/12/05 11:30:54;;;;;;;18.42;8.48;;;;;;;;;;5021273;28;20037;-63
2022/12/05 11:33:21;;;;;;;19.73;8.45;;;;;;;;;;5002848;28;20041;-63
2022/12/05 11:35:48;;;;;;;16.08;8.38;;;;;;;;;;5018629;28;20076;-60
2022/12/05 11:38:14;;;;;;;17.92;8.68;;;;;;;;;;5021565;28;20037;-61
2022/12/05 11:40:48;;;;;;;22.30;9.38;;;;;;;;;;5020186;28;20792;-61
2022/12/05 11:43:17;;;;;;;19.10;9.40;;;;;;;;;;5019683;28;20930;-61
2022/12/05 11:46:04;;;;;;;19.08;8.45;;;;;;;;;;5017612;28;20044;-61
2022/12/05 11:48:37;;;;;;;22.00;9.02;;;;;;;;;;5021837;28;20094;-61
2022/12/05 11:51:11;;;;;;;24.35;9.18;;;;;;;;;;5021262;28;20041;-65
2022/12/05 11:53:53;;;;;;;24.13;9.35;;;;;;;;;;5020408;28;20451;-61
2022/12/05 11:56:26;;;;;;;16.50;8.73;;;;;;;;;;5002010;28;20033;-61
2022/12/05 11:59:15;;;;;;;19.33;8.88;;;;;;;;;;5020272;28;20045;-61
2022/12/05 12:01:48;;;;;;;24.63;8.95;;;;;;;;;;5018795;28;20039;-61
2022/12/05 12:04:16;;;;;;;21.60;9.27;;;;;;;;;;5020744;28;20450;-64
2022/12/05 12:06:51;;;;;;;20.25;9.68;;;;;;;;;;5001553;28;20036;-62
2022/12/05 12:09:24;;;;;;;18.95;8.88;;;;;;;;;;5019909;28;20359;-62
2022/12/05 12:11:59;;;;;;;22.05;8.93;;;;;;;;;;4998904;28;20458;-61
2022/12/05 12:14:36;;;;;;;23.45;9.23;;;;;;;;;;5002920;28;20044;-62
2022/12/05 12:17:05;;;;;;;22.58;9.10;;;;;;;;;;5019454;28;20783;-61
2022/12/05 12:19:46;;;;;;;22.95;9.32;;;;;;;;;;5003192;28;20074;-62
2022/12/05 12:22:14;;;;;;;22.75;9.73;;;;;;;;;;5018086;28;20036;-62
2022/12/05 12:24:57;;;;;;;17.95;8.88;;;;;;;;;;5016723;28;20293;-60
2022/12/05 12:27:22;;;;;;;23.35;9.13;;;;;;;;;;5020516;28;20259;-61
2022/12/05 12:30:07;;;;;;;19.90;8.38;;;;;;;;;;4998725;28;20041;-61
2022/12/05 12:32:32;;;;;;;17.42;9.40;;;;;;;;;;5018830;28;20044;-61
2022/12/05 12:35:16;;;;;;;17.70;8.25;;;;;;;;;;5019360;28;20064;-61
2022/12/05 12:38:03;;;;;;;24.90;8.85;;;;;;;;;;5019512;28;20040;-61
2022/12/05 12:40:42;;;;;;;18.00;8.63;;;;;;;;;;5002808;28;20338;-61
2022/12/05 12:43:19;;;;;;;18.25;9.15;;;;;;;;;;5017740;28;20239;-61
2022/12/05 12:46:07;;;;;;;18.35;8.50;;;;;;;;;;5018801;28;20758;-63
2022/12/05 12:48:52;;;;;;;22.10;8.98;;;;;;;;;;5019123;28;20588;-63
2022/12/05 12:51:18;;;;;;;18.23;8.45;;;;;;;;;;5003380;28;20784;-63
2022/12/05 12:53:54;;;;;;;20.13;8.25;;;;;;;;;;5019339;28;20503;-62
2022/12/05 12:56:24;;;;;;;20.40;9.13;;;;;;;;;;5019125;28;20592;-62
2022/12/05 12:58:49;;;;;;;18.92;8.85;;;;;;;;;;5003011;28;20273;-62
2022/12/05 13:01:29;;;;;;;18.67;8.85;;;;;;;;;;5020403;28;20041;-63
2022/12/05 13:04:01;;;;;;;20.95;9.07;;;;;;;;;;5000233;28;20232;-62
2022/12/05 13:06:32;;;;;;;18.40;8.15;;;;;;;;;;4997671;28;20040;-63
2022/12/05 13:09:01;;;;;;;21.02;9.48;;;;;;;;;;5002480;28;20420;-62
2022/12/05 13:11:27;;;;;;;16.90;7.75;;;;;;;;;;5001804;28;20037;-62
2022/12/05 13:13:55;;;;;;;18.05;8.23;;;;;;;;;;5020907;28;20029;-62
2022/12/05 13:16:32;;;;;;;17.52;8.30;;;;;;;;;;5001467;28;20037;-64
2022/12/05 13:18:57;;;;;;;21.08;8.85;;;;;;;;;;5001397;28;20623;-63
2022/12/05 13:21:23;;;;;;;19.80;8.82;;;;;;;;;;5013320;28;20036;-61
2022/12/05 13:23:54;;;;;;;20.10;9.02;;;;;;;;;;4996402;28;20040;-61
2022/12/05 13:26:22;;;;;;;17.20;8.18;;;;;;;;;;5000338;28;20613;-61
2022/12/05 13:28:52;;;;;;;23.77;9.43;;;;;;;;;;5015400;28;20044;-62
2022/12/05 13:31:18;;;;;;;17.52;8.38;;;;;;;;;;5017944;28;20032;-62
2022/12/05 13:33:46;;;;;;;18.17;7.85;;;;;;;;;;5017386;28;20074;-61
2022/12/05 13:44:32;;;;;;;17.60;7.38;;;;;;;;;;5017437;28;20060;-61
2022/12/05 13:46:57;;;;;;;21.45;8.10;;;;;;;;;;5020893;28;20028;-63
2022/12/05 13:49:30;;;;;;;15.85;8.18;;;;;;;;;;5017036;28;20334;-61
2022/12/05 13:52:02;;;;;;;12.50;6.88;;;;;;;;;;5017606;28;20033;-64
2022/12/05 13:54:28;;;;;;;19.55;7.78;;;;;;;;;;5016501;28;20805;-61
2022/12/05 13:57:00;;;;;;;17.55;8.57;;;;;;;;;;5017078;28;20187;-63
2022/12/05 13:59:25;;;;;;;;;;;;;;;;;;4979467;28;20040;-64
2022/12/05 14:01:51;;;;;;;12.93;6.55;;;;;;;;;;4999614;28;19923;-63
2022/12/05 14:04:21;;;;;;;18.88;7.55;;;;;;;;;;4999853;28;20559;-63
2022/12/05 14:06:47;;;;;;;15.52;7.18;;;;;;;;;;5015839;28;20495;-61
2022/12/05 14:09:18;;;;;;;16.70;8.70;;;;;;;;;;5015901;28;20048;-63
2022/12/05 14:12:04;;;;;;;14.65;7.28;;;;;;;;;;4999382;28;20501;-64
2022/12/05 14:15:05;;;;;;;15.52;6.93;;;;;;;;;;5016892;28;20723;-62
2022/12/05 14:17:42;;;;;;;15.63;7.30;;;;;;;;;;4931840;28;20304;-62
2022/12/05 14:20:14;;;;;;;16.83;7.63;;;;;;;;;;5004520;28;20768;-62
2022/12/05 14:22:46;;;;;;;13.20;6.97;;;;;;;;;;4995583;28;20207;-63
2022/12/05 14:25:18;;;;;;;14.45;6.88;;;;;;;;;;4996248;28;20581;-63
2022/12/05 14:27:47;;;;;;;14.93;6.68;;;;;;;;;;5017405;28;20055;-63
2022/12/05 14:30:33;;;;;;;14.80;6.70;;;;;;;;;;5016289;28;20029;-63
2022/12/05 14:33:00;;;;;;;13.88;6.47;;;;;;;;;;5019684;28;20028;-63
2022/12/05 14:35:30;;;;;;;12.77;7.22;;;;;;;;;;5019278;28;20037;-63
2022/12/05 14:37:56;;;;;;;16.38;7.15;;;;;;;;;;5019341;28;20864;-62
2022/12/05 14:40:30;;;;;;;13.40;6.53;;;;;;;;;;5017143;28;20028;-62
2022/12/05 14:42:58;;;;;;;19.27;6.50;;;;;;;;;;5019084;28;20028;-62
2022/12/05 14:45:28;;;;;;;15.80;7.22;;;;;;;;;;5000515;28;20418;-62
2022/12/05 14:47:58;;;;;;;14.63;6.68;;;;;;;;;;5021912;28;20048;-62
2022/12/05 14:50:39;;;;;;;17.25;7.22;;;;;;;;;;5020008;28;20043;-63